Aviation Digital Data Service (ADDS)

Output produced by METARs form (2358 UTC 23 May 2022)
found at http://www.aviationweather.gov/metar/data/
 
KCAE 232339Z 2400/2424 22008KT P6SM VCSH BKN050 BKN200 
     TEMPO 2400/2401 VRB15G25KT 1SM TSRA BKN020CB 
     FM240300 VRB04KT P6SM SCT030 BKN100 
     FM240800 VRB03KT 4SM BR SCT007 BKN015 
     FM241500 22007KT P6SM BKN050 
     FM242200 26006KT P6SM VCSH SCT035 BKN100
       
KCAK 232320Z 2400/2424 06007KT P6SM OVC250 
     FM241900 09006KT P6SM BKN045
       
KCAR 232322Z 2400/2424 33006KT P6SM SKC 
     FM241200 02004KT P6SM FEW250
       
TAF KCBM 231700Z 2317/2423 34006KT 9999 OVC012 QNH2999INS 
     BECMG 2317/2318 36006KT 9999 BKN015 OVC025 QNH2997INS 
     BECMG 2320/2321 36006KT 9999 BKN030 QNH2997INS 
     BECMG 2405/2406 04006KT 9999 BKN009 QNH2994INS 
     BECMG 2408/2409 09006KT 8000 BR BKN005 QNH2991INS 
     BECMG 2411/2412 09006KT 9999 NSW BKN009 QNH2990INS 
     BECMG 2414/2415 12006KT 9999 BKN012 QNH2988INS 
     BECMG 2418/2419 13010G18KT 6000 -TSRA OVC015CB QNH2986INS 
     BECMG 2421/2422 15012KT 9999 NSW OVC012 QNH2986INS TX27/2320Z TN18/2409Z
       
KCDC 232320Z 2400/2424 36012G20KT P6SM FEW150 
     FM240300 04008KT P6SM FEW200 
     FM241000 VRB04KT P6SM FEW200 
     FM241600 34010KT P6SM FEW250
       
KCDR 232327Z 2400/2424 18010KT P6SM SCT045 
     FM240400 22006KT P6SM FEW250 
     FM240600 VRB06KT P6SM FEW180 
     FM241600 11009KT P6SM BKN050
       
KCDS 232340Z 2400/2424 11011KT P6SM OVC012 
     FM240300 15015KT 6SM -TSRA SCT008CB OVC015 
     FM240700 03011KT 4SM SHRA BR OVC008 
     FM241700 35015KT P6SM BKN025
       
KCEC 232327Z 2400/2424 35012G22KT 6SM HZ SCT250 
     FM240300 36008G17KT 6SM HZ SCT006 
     FM240600 02005KT 5SM BR OVC006 
     FM241700 32009KT 6SM HZ FEW006 SCT250 
     FM242000 34011G17KT 6SM HZ SKC
       
TAF KCEF 231800Z 2318/2424 02012KT 9999 FEW040 BKN200 QNH3015INS 
     TEMPO 2318/2321 04012G18KT 510004 
     BECMG 2323/2324 05007KT 9999 SCT050 BKN130 BKN200 QNH3018INS 
     BECMG 2412/2413 09012KT 9999 SCT050 BKN070 BKN250 QNH3027INS 
     BECMG 2423/2424 18007KT 9999 FEW030 SCT070 SCT250 QNH3029INS TX23/2320Z
TN12/2410Z
       
KCGI 232320Z 2400/2424 05006KT P6SM BKN070 
     FM241200 VRB04KT P6SM BKN026 
     FM241500 08008KT P6SM OVC020 
     FM242000 10010KT P6SM OVC025 
     FM242100 10010KT P6SM OVC035 
     FM242300 10010KT P6SM BKN030
       
KCHA 232340Z 2400/2424 36005KT P6SM SCT025 BKN050 
     FM240400 01003KT P6SM BKN025 
     FM240700 00000KT 4SM BR BKN015 
     TEMPO 2409/2412 2SM BR OVC007 
     FM241300 00000KT P6SM BKN040 
     FM242000 11004KT P6SM SCT080 
     PROB30 2421/2424 4SM TSRA BKN050CB
       
KCHO 232321Z 2400/2424 03004KT 5SM -RA BR SCT008 BKN020 OVC035 
     FM240200 02003KT 4SM -RA BR BKN008 OVC015 
     FM240600 03004KT 3SM RA BR OVC006 
     FM241500 03004KT 5SM -RA BR BKN008 OVC015 
     FM241800 04006KT P6SM VCSH SCT003 OVC008
       
KCHS 232336Z 2400/2424 20010KT P6SM VCTS SCT030CB OVC200 
     TEMPO 2400/2401 VRB10G20KT 3SM TSRA BKN025CB 
     FM240200 22008KT P6SM SCT040 BKN080 
     FM240800 22008KT P6SM SCT020 BKN035 
     FM241900 19010KT P6SM SCT035
       
KCID 232320Z 2400/2424 06006KT P6SM BKN150 
     FM242100 08012G20KT P6SM OVC090
       
KCKB 232345Z 2400/2424 06006KT P6SM -SHRA SCT015 OVC060 
     TEMPO 2400/2404 3SM -SHRA BR OVC015 
     FM240400 VRB03KT 4SM BR OVC035 
     FM241400 09005KT P6SM OVC019 
     FM241700 10005KT P6SM BKN022 
     FM242300 10007KT P6SM BKN035
       
KCKV 232347Z 2400/2424 03009KT P6SM OVC020 
     FM240700 05002KT 6SM BR OVC010 
     FM241300 08006KT P6SM BKN015 
     FM241600 08005KT P6SM SCT030
       
KCLE 232320Z 2400/2506 03012KT P6SM BKN250 
     FM250300 09006KT P6SM BKN035
       
KCLL 232336Z 2400/2424 08011KT P6SM SCT050 
     FM240300 12007KT P6SM SCT030 
     FM240900 14007KT 6SM BR VCTS BKN018CB 
     FM241500 17014KT P6SM BKN018 
     FM241900 18013KT P6SM BKN035
       
KCLM 232339Z 2400/2424 31013G20KT P6SM SCT050 
     FM240800 29010KT P6SM SCT040 BKN250 
     FM241100 27009KT P6SM OVC040 
     FM242000 35004KT P6SM OVC100
       
KCLT 232335Z 2400/2506 12008KT P6SM -SHRA SCT009 BKN015 
     TEMPO 2400/2402 3SM TSRA BR SCT008 OVC015CB 
     FM240200 13009KT 4SM -SHRA BR OVC008 
     FM240500 17009KT P6SM OVC005 
     FM241700 34005KT P6SM SCT008 BKN015 
     FM250000 04008KT P6SM SCT005 
     PROB30 2500/2506 4SM -RA BR BKN005
       
KCMA 232337Z 2400/2424 25010KT P6SM FEW015 
     FM240300 VRB03KT P6SM SCT010 
     FM240800 VRB03KT 5SM BR OVC006 
     FM241600 VRB03KT P6SM BKN010 
     FM241900 24008KT P6SM FEW012
       
KCMH 232320Z 2400/2424 06006KT P6SM OVC060 
     FM240300 03007KT P6SM SCT250 
     FM241500 05006KT P6SM SCT050
       
KCMI 232350Z 2400/2424 07010KT P6SM FEW050 SCT200 
     FM241800 09011G19KT P6SM OVC100
       
KCMX 232326Z 2400/2424 09005KT P6SM SCT080 
     FM240700 25005KT P6SM FEW200 
     FM242100 10006KT P6SM SCT200
       
KCNM 232329Z 2400/2424 16015KT P6SM FEW100 SCT250 
     FM241000 32012KT P6SM SKC
       
KCNU 232320Z 2400/2424 12011KT P6SM VCSH BKN040 
     FM240400 08007KT P6SM VCSH OVC030 
     FM240700 07008KT 6SM SHRA BR VCTS OVC016CB 
     FM241300 10012KT 4SM SHRA BR VCTS OVC009CB 
     FM241900 11012KT 1SM +SHRA BR OVC010
       
KCNY 232344Z 2400/2424 33008KT P6SM FEW150 SCT250 
     FM240200 04007KT P6SM SCT150 BKN200 
     FM240500 31007KT P6SM SCT120 BKN200 
     FM241800 30012G23KT P6SM FEW090 FEW250
       
KCOD 232320Z 2400/2424 04007KT P6SM SCT050 OVC070 
     FM240300 22008G15KT P6SM VCSH OVC070 
     FM240400 22005KT P6SM OVC070 
     FM240900 VRB04KT P6SM OVC100
       
KCOE 232334Z 2400/2424 26011KT P6SM VCSH BKN070 BKN100 
     FM240100 22009KT P6SM -SHRA BKN050 BKN100 
     TEMPO 2402/2404 5SM -TSRA BKN050CB OVC090 
     FM240800 16003KT P6SM BKN025 BKN060 
     FM241400 14003KT P6SM BKN025 
     FM241900 19006KT P6SM SCT035 BKN060
       
TAF KCOF 231800Z 2318/2424 14010G15KT 9999 FEW040 QNH3004INS 
     BECMG 2404/2405 14009KT 9999 FEW030 SCT060 QNH3003INS 
     BECMG 2415/2416 12012G18KT 9999 FEW050 SCT150 QNH3001INS TX31/2319Z
TN23/2410Z
       
KCON 232327Z 2400/2424 VRB02KT P6SM SCT250 
     FM241500 12006KT P6SM BKN150
       
KCOS 232329Z 2400/2424 05012KT P6SM -SHRA SCT015 BKN035 OVC050 
     FM240300 03010KT P6SM VCSH SCT010 BKN030 BKN050 
     FM240500 05010KT 5SM BR VCSH OVC009 
     FM241200 34009KT P6SM VCSH OVC012 
     FM241600 01014KT 3SM -RA BR BKN020 BKN100 
     FM242000 03011KT P6SM SCT030 BKN100
       
KCOT 232357Z 2400/2424 VRB15G25KT 5SM -TSRA SCT040CB BKN090 
     TEMPO 2400/2404 VRB25G35KT 3SM TSRA BKN030CB 
     FM240800 10007KT P6SM VCSH BKN020 
     FM241400 15010KT P6SM BKN035
       
KCOU 232324Z 2400/2424 08007KT P6SM BKN100 
     FM241500 09010G20KT P6SM BKN060 
     FM242300 10012G20KT P6SM VCSH BKN045
       
KCPS 232324Z 2400/2424 07007KT P6SM OVC090 
     FM241800 09010G16KT P6SM BKN040 
     FM242300 10010G16KT P6SM BKN060
       
KCRE 232320Z 2400/2424 19010KT P6SM BKN130 
     FM240300 18007KT P6SM -RA BKN045 
     FM240900 19007KT P6SM BKN040 
     FM241600 19011KT P6SM BKN040 
     FM242200 20012G19KT P6SM SCT100
       
KCRG 232336Z 2400/2424 14010KT P6SM VCSH SCT040 BKN250 
     FM240300 15003KT P6SM BKN035 BKN250 
     FM241400 17008KT P6SM SCT040 SCT150 
     FM241900 13012KT P6SM SCT040 BKN250
       
KCRP 232328Z 2400/2424 12012KT P6SM SCT050 
     FM240500 15008KT P6SM VCSH SCT020 BKN040 
     TEMPO 2408/2412 VRB25G35KT 3SM TSRA OVC020CB 
     FM241500 16018G25KT P6SM SCT035
       
KCRQ 232340Z 2400/2424 23006KT P6SM OVC012 
     FM240300 VRB04KT 5SM BR OVC007 
     FM241900 24009KT P6SM SCT014
       
KCRW 232345Z 2400/2424 03005KT 6SM -SHRA BR OVC006 
     FM240400 VRB03KT 5SM BR OVC011 
     FM240900 00000KT 2SM BR FEW001 OVC024 
     FM241100 00000KT 3SM BR OVC022 
     FM241400 00000KT P6SM OVC018 
     FM241600 00000KT P6SM OVC022 
     FM242000 VRB03KT P6SM BKN035
       
KCSG 232339Z 2400/2424 23006KT P6SM VCSH SCT035 OVC100 
     FM240200 VRB03KT P6SM BKN150 
     FM240800 00000KT 5SM BR OVC150 
     FM241400 17004KT P6SM SCT025 BKN040 
     FM241800 20006KT P6SM SCT035 BKN050 
     PROB30 2418/2424 4SM TSRA BR OVC025CB
       
KCSM 232324Z 2400/2424 09010KT 5SM BR OVC005 
     TEMPO 2406/2409 2SM TSRA OVC006CB 
     FM240900 10008KT 4SM -RA BR OVC004
       
KCSV 232350Z 2400/2424 36008KT 1SM BR OVC003 
     FM241100 06002KT 1/2SM FG OVC001 
     FM241300 07002KT 2SM BR OVC001 
     FM241400 09003KT P6SM BKN010 
     FM241700 10003KT P6SM SCT010 BKN250
       
KCTB 232324Z 2400/2424 28013KT P6SM SCT100 
     FM240400 26009KT P6SM BKN250
       
KCUB 232339Z 2400/2424 21008KT P6SM VCSH BKN050 BKN200 
     TEMPO 2400/2401 VRB15G25KT 1SM TSRA BKN020CB 
     FM240300 VRB04KT P6SM SCT030 BKN100 
     FM240800 VRB03KT 4SM BR SCT007 BKN015 
     FM241500 22007KT P6SM BKN050 
     FM242200 26006KT P6SM VCSH SCT035 BKN100
       
KCVG 232320Z 2400/2506 05009KT P6SM BKN060 
     FM240300 04005KT P6SM FEW250 
     FM241500 06008KT P6SM SCT045
       
TAF COR KCVS 232220Z 2321/2424 18010G20KT 9999 VCSH SCT100 QNH2989INS 
     TEMPO 2322/2409 15020G35KT TSRAGR OVC040CB 
     BECMG 2408/2409 36015KT 9000 -SHRA BKN100 QNH2979INS 
     BECMG 2413/2414 36012KT 9999 NSW SCT080 QNH2981INS 
     BECMG 2418/2419 36015G25KT 9000 -RA VCTS BKN080CB QNH2978INS TX27/2322Z
TN12/2413Z
       
KCWA 232320Z 2400/2424 16007KT P6SM SCT070 BKN250 
     FM240200 12003KT P6SM BKN200 
     FM241500 13008KT P6SM SCT060
       
KCXO 232336Z 2400/2424 12004KT P6SM OVC021 
     FM241000 15008KT 6SM BR VCTS BKN015CB 
     FM241600 18008KT 6SM SHRA BR VCTS BKN015CB 
     FM242000 18011KT P6SM BKN035
       
KCXP 231720Z 2318/2418 VRB04KT P6SM FEW250 
     FM232000 04009KT P6SM SCT250 
     FM240400 VRB03KT P6SM SKC
       
KCYS 232327Z 2400/2424 01010KT P6SM FEW080 
     FM240900 34006KT 5SM BR BKN013 
     FM241200 02006KT 3/4SM BR VCFG SCT005 OVC025 
     FM241500 06012KT 6SM BR FEW005 SCT025 OVC050 
     FM241800 04010G18KT P6SM BKN050